Terminal Aerodrome Forecast
Issued by NWS Sioux Falls, SD

Home | Current Version | Previous Version | Text Only | Print | Product List | Glossary On
Versions: 1 2 3 4 5 6 7 8 9 10 11 12 13 14 15 16 17 18 19 20 21 22 23 24 25 26
000
FTUS43 KFSD 231150
TAFSUX
TAF
KSUX 231150Z 2312/2412 14010KT P6SM -SHRA OVC080
     FM231700 15015G23KT P6SM -SHRA OVC050
     FM232000 16015G23KT P6SM OVC035
     FM240000 14011KT P6SM BKN040=

USA.gov is the U.S. government's official web portal to all federal, state and local government web resources and services.